sensor_id;sensor_type;location;lat;lon;timestamp;pressure;altitude;pressure_sealevel;temperature;humidity
30819;BME280;17546;42.674;23.284;2023-03-03T00:00:44;94755.22;;;11.84;45.78
30819;BME280;17546;42.674;23.284;2023-03-03T00:03:14;94758.25;;;11.86;45.80
30819;BME280;17546;42.674;23.284;2023-03-03T00:05:40;94771.16;;;12.11;45.41
30819;BME280;17546;42.674;23.284;2023-03-03T00:08:07;94755.75;;;12.33;44.93
30819;BME280;17546;42.674;23.284;2023-03-03T00:10:32;94760.31;;;11.91;45.55
30819;BME280;17546;42.674;23.284;2023-03-03T00:12:58;94762.84;;;12.00;45.50
30819;BME280;17546;42.674;23.284;2023-03-03T00:15:25;94753.75;;;12.05;45.50
30819;BME280;17546;42.674;23.284;2023-03-03T00:17:51;94757.28;;;12.00;45.89
30819;BME280;17546;42.674;23.284;2023-03-03T00:22:51;94750.97;;;12.22;45.01
30819;BME280;17546;42.674;23.284;2023-03-03T00:25:35;94749.69;;;12.12;45.46
30819;BME280;17546;42.674;23.284;2023-03-03T00:30:39;94749.97;;;12.03;45.68
30819;BME280;17546;42.674;23.284;2023-03-03T00:33:20;94760.00;;;12.34;45.08
30819;BME280;17546;42.674;23.284;2023-03-03T00:35:46;94748.91;;;12.39;45.12
30819;BME280;17546;42.674;23.284;2023-03-03T00:38:18;94735.97;;;12.53;44.88
30819;BME280;17546;42.674;23.284;2023-03-03T00:40:45;94732.44;;;12.47;45.04
30819;BME280;17546;42.674;23.284;2023-03-03T00:43:18;94737.47;;;12.66;44.67
30819;BME280;17546;42.674;23.284;2023-03-03T00:45:49;94726.31;;;12.71;44.49
30819;BME280;17546;42.674;23.284;2023-03-03T00:48:44;94725.56;;;12.65;44.51
30819;BME280;17546;42.674;23.284;2023-03-03T00:53:44;94719.72;;;12.80;44.58
30819;BME280;17546;42.674;23.284;2023-03-03T00:56:10;94717.66;;;12.86;44.31
30819;BME280;17546;42.674;23.284;2023-03-03T00:58:35;94718.66;;;12.94;44.17
30819;BME280;17546;42.674;23.284;2023-03-03T01:01:00;94699.00;;;12.81;44.29
30819;BME280;17546;42.674;23.284;2023-03-03T01:03:26;94700.19;;;12.97;44.16
30819;BME280;17546;42.674;23.284;2023-03-03T01:05:52;94698.63;;;13.01;43.96
30819;BME280;17546;42.674;23.284;2023-03-03T01:08:18;94697.91;;;12.95;43.88
30819;BME280;17546;42.674;23.284;2023-03-03T01:10:51;94702.97;;;12.91;44.16
30819;BME280;17546;42.674;23.284;2023-03-03T01:13:20;94695.03;;;12.59;44.51
30819;BME280;17546;42.674;23.284;2023-03-03T01:15:54;94692.47;;;12.73;44.40
30819;BME280;17546;42.674;23.284;2023-03-03T01:18:20;94700.56;;;12.71;44.34
30819;BME280;17546;42.674;23.284;2023-03-03T01:20:45;94694.63;;;12.91;43.77
30819;BME280;17546;42.674;23.284;2023-03-03T01:23:11;94697.34;;;13.02;44.08
30819;BME280;17546;42.674;23.284;2023-03-03T01:25:37;94692.59;;;12.97;44.04
30819;BME280;17546;42.674;23.284;2023-03-03T01:28:03;94693.88;;;12.96;43.91
30819;BME280;17546;42.674;23.284;2023-03-03T01:30:29;94699.38;;;13.08;43.70
30819;BME280;17546;42.674;23.284;2023-03-03T01:32:55;94698.94;;;12.92;43.86
30819;BME280;17546;42.674;23.284;2023-03-03T01:35:20;94703.44;;;13.01;43.89
30819;BME280;17546;42.674;23.284;2023-03-03T01:37:46;94694.06;;;13.10;43.83
30819;BME280;17546;42.674;23.284;2023-03-03T01:40:18;94684.97;;;13.03;44.07
30819;BME280;17546;42.674;23.284;2023-03-03T01:42:44;94691.91;;;12.86;44.01
30819;BME280;17546;42.674;23.284;2023-03-03T01:48:09;94689.50;;;12.54;44.57
30819;BME280;17546;42.674;23.284;2023-03-03T01:52:59;94683.13;;;12.65;44.37
30819;BME280;17546;42.674;23.284;2023-03-03T01:55:31;94687.06;;;12.28;45.04
30819;BME280;17546;42.674;23.284;2023-03-03T01:58:19;94666.91;;;12.10;45.52
30819;BME280;17546;42.674;23.284;2023-03-03T02:00:52;94670.66;;;12.18;45.45
30819;BME280;17546;42.674;23.284;2023-03-03T02:03:20;94673.16;;;12.28;45.28
30819;BME280;17546;42.674;23.284;2023-03-03T02:05:47;94680.47;;;12.36;45.12
30819;BME280;17546;42.674;23.284;2023-03-03T02:08:15;94680.91;;;12.57;44.98
30819;BME280;17546;42.674;23.284;2023-03-03T02:10:45;94674.78;;;12.70;44.72
30819;BME280;17546;42.674;23.284;2023-03-03T02:13:10;94676.53;;;12.73;44.96
30819;BME280;17546;42.674;23.284;2023-03-03T02:15:36;94678.78;;;12.80;44.94
30819;BME280;17546;42.674;23.284;2023-03-03T02:18:10;94678.00;;;12.86;44.13
30819;BME280;17546;42.674;23.284;2023-03-03T02:20:54;94686.41;;;12.74;44.66
30819;BME280;17546;42.674;23.284;2023-03-03T02:23:34;94681.13;;;12.65;44.63
30819;BME280;17546;42.674;23.284;2023-03-03T02:26:09;94677.28;;;12.74;44.66
30819;BME280;17546;42.674;23.284;2023-03-03T02:28:37;94681.09;;;12.71;44.78
30819;BME280;17546;42.674;23.284;2023-03-03T02:31:05;94684.81;;;12.90;44.70
30819;BME280;17546;42.674;23.284;2023-03-03T02:33:31;94684.31;;;12.86;44.52
30819;BME280;17546;42.674;23.284;2023-03-03T02:35:57;94683.38;;;12.67;44.71
30819;BME280;17546;42.674;23.284;2023-03-03T02:38:47;94685.38;;;12.72;44.74
30819;BME280;17546;42.674;23.284;2023-03-03T02:41:38;94678.25;;;12.82;44.18
30819;BME280;17546;42.674;23.284;2023-03-03T02:44:07;94672.63;;;12.40;44.95
30819;BME280;17546;42.674;23.284;2023-03-03T02:46:36;94684.59;;;11.73;46.46
30819;BME280;17546;42.674;23.284;2023-03-03T02:49:03;94677.53;;;12.06;45.58
30819;BME280;17546;42.674;23.284;2023-03-03T02:51:29;94677.22;;;12.21;45.73
30819;BME280;17546;42.674;23.284;2023-03-03T02:53:55;94673.94;;;12.23;45.60
30819;BME280;17546;42.674;23.284;2023-03-03T02:56:20;94676.41;;;12.43;45.47
30819;BME280;17546;42.674;23.284;2023-03-03T02:58:46;94677.38;;;12.51;45.33
30819;BME280;17546;42.674;23.284;2023-03-03T03:01:11;94676.59;;;12.56;45.28
30819;BME280;17546;42.674;23.284;2023-03-03T03:03:37;94666.22;;;12.63;45.15
30819;BME280;17546;42.674;23.284;2023-03-03T03:06:03;94672.88;;;12.48;45.33
30819;BME280;17546;42.674;23.284;2023-03-03T03:08:28;94671.56;;;12.55;45.16
30819;BME280;17546;42.674;23.284;2023-03-03T03:10:54;94674.00;;;12.70;44.88
30819;BME280;17546;42.674;23.284;2023-03-03T03:13:22;94669.25;;;12.65;45.16
30819;BME280;17546;42.674;23.284;2023-03-03T03:15:48;94668.94;;;12.74;45.30
30819;BME280;17546;42.674;23.284;2023-03-03T03:18:14;94672.22;;;12.78;45.17
30819;BME280;17546;42.674;23.284;2023-03-03T03:20:40;94672.69;;;12.82;45.20
30819;BME280;17546;42.674;23.284;2023-03-03T03:23:07;94664.91;;;12.75;45.26
30819;BME280;17546;42.674;23.284;2023-03-03T03:25:33;94674.16;;;12.94;44.75
30819;BME280;17546;42.674;23.284;2023-03-03T03:27:58;94663.47;;;12.57;45.11
30819;BME280;17546;42.674;23.284;2023-03-03T03:30:24;94672.28;;;12.67;45.12
30819;BME280;17546;42.674;23.284;2023-03-03T03:32:49;94662.44;;;12.66;45.42
30819;BME280;17546;42.674;23.284;2023-03-03T03:35:15;94663.00;;;12.47;45.91
30819;BME280;17546;42.674;23.284;2023-03-03T03:37:42;94649.09;;;12.47;45.93
30819;BME280;17546;42.674;23.284;2023-03-03T03:40:09;94654.09;;;12.66;46.07
30819;BME280;17546;42.674;23.284;2023-03-03T03:42:34;94658.06;;;12.76;45.76
30819;BME280;17546;42.674;23.284;2023-03-03T03:45:00;94653.56;;;12.73;45.96
30819;BME280;17546;42.674;23.284;2023-03-03T03:47:25;94652.22;;;12.85;45.83
30819;BME280;17546;42.674;23.284;2023-03-03T03:49:51;94654.00;;;12.82;45.63
30819;BME280;17546;42.674;23.284;2023-03-03T03:52:16;94653.00;;;12.80;45.63
30819;BME280;17546;42.674;23.284;2023-03-03T03:54:42;94654.22;;;12.90;45.71
30819;BME280;17546;42.674;23.284;2023-03-03T03:57:07;94653.50;;;12.84;45.83
30819;BME280;17546;42.674;23.284;2023-03-03T03:59:33;94649.91;;;12.89;45.58
30819;BME280;17546;42.674;23.284;2023-03-03T04:01:58;94655.03;;;12.79;45.90
30819;BME280;17546;42.674;23.284;2023-03-03T04:04:24;94648.75;;;12.73;45.62
30819;BME280;17546;42.674;23.284;2023-03-03T04:06:49;94644.41;;;12.78;45.81
30819;BME280;17546;42.674;23.284;2023-03-03T04:09:15;94642.09;;;12.88;45.88
30819;BME280;17546;42.674;23.284;2023-03-03T04:11:40;94651.69;;;12.87;46.13
30819;BME280;17546;42.674;23.284;2023-03-03T04:14:06;94643.09;;;12.90;45.86
30819;BME280;17546;42.674;23.284;2023-03-03T04:16:32;94648.13;;;12.92;45.90
30819;BME280;17546;42.674;23.284;2023-03-03T04:18:57;94639.31;;;12.88;45.88
30819;BME280;17546;42.674;23.284;2023-03-03T04:21:23;94651.94;;;12.94;45.85
30819;BME280;17546;42.674;23.284;2023-03-03T04:23:49;94648.13;;;12.92;45.68
30819;BME280;17546;42.674;23.284;2023-03-03T04:26:15;94638.06;;;12.83;45.90
30819;BME280;17546;42.674;23.284;2023-03-03T04:28:41;94638.31;;;12.85;45.95
30819;BME280;17546;42.674;23.284;2023-03-03T04:31:06;94639.41;;;12.71;46.20
30819;BME280;17546;42.674;23.284;2023-03-03T04:33:32;94633.06;;;12.76;46.01
30819;BME280;17546;42.674;23.284;2023-03-03T04:35:57;94643.88;;;12.85;45.74
30819;BME280;17546;42.674;23.284;2023-03-03T04:38:23;94639.03;;;12.91;45.72
30819;BME280;17546;42.674;23.284;2023-03-03T04:40:48;94642.56;;;12.92;45.90
30819;BME280;17546;42.674;23.284;2023-03-03T04:43:14;94642.13;;;12.82;45.90
30819;BME280;17546;42.674;23.284;2023-03-03T04:45:40;94647.91;;;12.90;46.03
30819;BME280;17546;42.674;23.284;2023-03-03T04:48:08;94633.59;;;12.74;46.15
30819;BME280;17546;42.674;23.284;2023-03-03T04:50:33;94642.09;;;12.88;46.14
30819;BME280;17546;42.674;23.284;2023-03-03T04:53:00;94640.81;;;12.94;45.76
30819;BME280;17546;42.674;23.284;2023-03-03T04:55:26;94639.78;;;12.92;45.88
30819;BME280;17546;42.674;23.284;2023-03-03T04:57:51;94646.88;;;12.87;46.03
30819;BME280;17546;42.674;23.284;2023-03-03T05:00:17;94647.38;;;12.91;45.96
30819;BME280;17546;42.674;23.284;2023-03-03T05:02:43;94647.88;;;12.95;45.97
30819;BME280;17546;42.674;23.284;2023-03-03T05:05:11;94645.06;;;13.01;45.85
30819;BME280;17546;42.674;23.284;2023-03-03T05:07:38;94658.72;;;12.99;45.92
30819;BME280;17546;42.674;23.284;2023-03-03T05:10:05;94649.06;;;13.06;45.90
30819;BME280;17546;42.674;23.284;2023-03-03T05:12:31;94651.88;;;13.00;45.72
30819;BME280;17546;42.674;23.284;2023-03-03T05:14:56;94654.88;;;13.08;45.71
30819;BME280;17546;42.674;23.284;2023-03-03T05:17:22;94652.88;;;13.02;45.70
30819;BME280;17546;42.674;23.284;2023-03-03T05:19:47;94651.06;;;13.05;45.37
30819;BME280;17546;42.674;23.284;2023-03-03T05:22:13;94652.09;;;13.08;45.46
30819;BME280;17546;42.674;23.284;2023-03-03T05:24:38;94656.38;;;13.09;45.57
30819;BME280;17546;42.674;23.284;2023-03-03T05:27:04;94661.38;;;13.16;45.44
30819;BME280;17546;42.674;23.284;2023-03-03T05:29:33;94661.91;;;13.14;45.78
30819;BME280;17546;42.674;23.284;2023-03-03T05:32:00;94657.66;;;13.08;46.03
30819;BME280;17546;42.674;23.284;2023-03-03T05:34:25;94653.41;;;12.95;46.22
30819;BME280;17546;42.674;23.284;2023-03-03T05:36:52;94656.19;;;13.01;46.26
30819;BME280;17546;42.674;23.284;2023-03-03T05:39:17;94658.91;;;13.07;46.11
30819;BME280;17546;42.674;23.284;2023-03-03T05:41:43;94662.44;;;13.07;46.19
30819;BME280;17546;42.674;23.284;2023-03-03T05:44:08;94660.69;;;13.10;46.08
30819;BME280;17546;42.674;23.284;2023-03-03T05:46:36;94663.47;;;13.10;45.87
30819;BME280;17546;42.674;23.284;2023-03-03T05:49:02;94660.63;;;13.15;45.67
30819;BME280;17546;42.674;23.284;2023-03-03T05:51:27;94674.03;;;13.17;46.00
30819;BME280;17546;42.674;23.284;2023-03-03T05:53:53;94677.06;;;13.19;46.18
30819;BME280;17546;42.674;23.284;2023-03-03T05:56:18;94667.09;;;12.93;46.24
30819;BME280;17546;42.674;23.284;2023-03-03T05:58:44;94669.56;;;13.02;46.29
30819;BME280;17546;42.674;23.284;2023-03-03T06:01:10;94659.38;;;12.69;46.46
30819;BME280;17546;42.674;23.284;2023-03-03T06:03:36;94665.22;;;12.66;46.53
30819;BME280;17546;42.674;23.284;2023-03-03T06:06:01;94667.75;;;12.64;46.80
30819;BME280;17546;42.674;23.284;2023-03-03T06:08:26;94667.41;;;12.78;46.36
30819;BME280;17546;42.674;23.284;2023-03-03T06:10:53;94659.41;;;12.64;46.81
30819;BME280;17546;42.674;23.284;2023-03-03T06:13:18;94670.34;;;12.50;47.16
30819;BME280;17546;42.674;23.284;2023-03-03T06:15:44;94664.03;;;12.44;47.37
30819;BME280;17546;42.674;23.284;2023-03-03T06:18:09;94671.81;;;12.51;47.17
30819;BME280;17546;42.674;23.284;2023-03-03T06:20:35;94675.28;;;12.69;46.82
30819;BME280;17546;42.674;23.284;2023-03-03T06:23:03;94672.28;;;12.67;47.21
30819;BME280;17546;42.674;23.284;2023-03-03T06:25:28;94679.31;;;12.79;46.94
30819;BME280;17546;42.674;23.284;2023-03-03T06:27:54;94678.00;;;12.86;46.56
30819;BME280;17546;42.674;23.284;2023-03-03T06:30:19;94678.50;;;12.84;46.75
30819;BME280;17546;42.674;23.284;2023-03-03T06:32:45;94664.94;;;12.69;46.67
30819;BME280;17546;42.674;23.284;2023-03-03T06:35:11;94673.25;;;12.75;46.40
30819;BME280;17546;42.674;23.284;2023-03-03T06:37:36;94675.63;;;12.48;46.51
30819;BME280;17546;42.674;23.284;2023-03-03T06:40:03;94680.03;;;12.79;46.06
30819;BME280;17546;42.674;23.284;2023-03-03T06:42:29;94677.50;;;12.81;46.39
30819;BME280;17546;42.674;23.284;2023-03-03T06:44:54;94683.38;;;12.72;46.48
30819;BME280;17546;42.674;23.284;2023-03-03T06:47:20;94685.59;;;12.79;46.44
30819;BME280;17546;42.674;23.284;2023-03-03T06:49:46;94683.28;;;12.89;46.43
30819;BME280;17546;42.674;23.284;2023-03-03T06:52:13;94681.69;;;12.52;47.18
30819;BME280;17546;42.674;23.284;2023-03-03T06:54:40;94673.56;;;12.54;46.75
30819;BME280;17546;42.674;23.284;2023-03-03T06:57:29;94689.06;;;12.33;47.05
30819;BME280;17546;42.674;23.284;2023-03-03T07:02:40;94679.97;;;12.38;47.34
30819;BME280;17546;42.674;23.284;2023-03-03T07:05:10;94673.06;;;12.56;47.26
30819;BME280;17546;42.674;23.284;2023-03-03T07:07:38;94693.81;;;12.49;47.33
30819;BME280;17546;42.674;23.284;2023-03-03T07:10:17;94687.97;;;12.58;47.04
30819;BME280;17546;42.674;23.284;2023-03-03T07:12:44;94685.44;;;12.60;47.04
30819;BME280;17546;42.674;23.284;2023-03-03T07:17:40;94688.19;;;12.66;47.34
30819;BME280;17546;42.674;23.284;2023-03-03T07:20:37;94689.38;;;12.82;47.13
30819;BME280;17546;42.674;23.284;2023-03-03T07:23:22;94690.41;;;12.79;47.97
30819;BME280;17546;42.674;23.284;2023-03-03T07:25:49;94687.03;;;12.92;47.62
30819;BME280;17546;42.674;23.284;2023-03-03T07:30:46;94689.25;;;13.10;47.12
30819;BME280;17546;42.674;23.284;2023-03-03T07:33:27;94687.00;;;13.03;46.67
30819;BME280;17546;42.674;23.284;2023-03-03T07:35:56;94683.44;;;13.08;46.81
30819;BME280;17546;42.674;23.284;2023-03-03T07:38:37;94685.41;;;13.13;46.53
30819;BME280;17546;42.674;23.284;2023-03-03T07:41:17;94685.72;;;13.10;46.81
30819;BME280;17546;42.674;23.284;2023-03-03T07:46:38;94685.63;;;13.21;46.82
30819;BME280;17546;42.674;23.284;2023-03-03T07:49:21;94679.78;;;13.30;46.65
30819;BME280;17546;42.674;23.284;2023-03-03T07:51:52;94685.03;;;13.39;46.41
30819;BME280;17546;42.674;23.284;2023-03-03T07:54:37;94683.56;;;13.27;46.33
30819;BME280;17546;42.674;23.284;2023-03-03T08:02:45;94687.13;;;13.22;45.39
30819;BME280;17546;42.674;23.284;2023-03-03T08:05:35;94681.53;;;13.33;45.64
30819;BME280;17546;42.674;23.284;2023-03-03T08:10:30;94673.63;;;13.01;46.03
30819;BME280;17546;42.674;23.284;2023-03-03T08:13:00;94681.53;;;12.86;46.13
30819;BME280;17546;42.674;23.284;2023-03-03T08:15:30;94679.97;;;12.96;46.18
30819;BME280;17546;42.674;23.284;2023-03-03T08:18:00;94677.88;;;13.02;46.09
30819;BME280;17546;42.674;23.284;2023-03-03T08:23:00;94674.19;;;12.83;46.30
30819;BME280;17546;42.674;23.284;2023-03-03T08:25:26;94673.56;;;12.60;46.34
30819;BME280;17546;42.674;23.284;2023-03-03T08:27:51;94667.34;;;12.37;46.88
30819;BME280;17546;42.674;23.284;2023-03-03T08:30:17;94658.19;;;12.53;46.67
30819;BME280;17546;42.674;23.284;2023-03-03T08:32:42;94658.97;;;12.95;45.85
30819;BME280;17546;42.674;23.284;2023-03-03T08:35:08;94665.94;;;13.19;45.67
30819;BME280;17546;42.674;23.284;2023-03-03T08:37:34;94665.88;;;13.30;45.82
30819;BME280;17546;42.674;23.284;2023-03-03T08:39:59;94657.94;;;13.40;45.50
30819;BME280;17546;42.674;23.284;2023-03-03T08:42:24;94664.09;;;13.33;45.56
30819;BME280;17546;42.674;23.284;2023-03-03T08:44:50;94661.19;;;13.50;45.50
30819;BME280;17546;42.674;23.284;2023-03-03T08:47:15;94656.53;;;13.58;45.80
30819;BME280;17546;42.674;23.284;2023-03-03T08:49:41;94659.91;;;13.51;45.70
30819;BME280;17546;42.674;23.284;2023-03-03T08:52:06;94664.72;;;12.61;46.29
30819;BME280;17546;42.674;23.284;2023-03-03T08:54:31;94664.47;;;13.07;46.25
30819;BME280;17546;42.674;23.284;2023-03-03T08:56:57;94668.06;;;13.01;46.43
30819;BME280;17546;42.674;23.284;2023-03-03T08:59:22;94662.69;;;13.09;46.38
30819;BME280;17546;42.674;23.284;2023-03-03T09:01:48;94662.41;;;13.13;46.09
30819;BME280;17546;42.674;23.284;2023-03-03T09:04:13;94666.81;;;12.97;46.18
30819;BME280;17546;42.674;23.284;2023-03-03T09:06:39;94671.22;;;12.81;46.28
30819;BME280;17546;42.674;23.284;2023-03-03T09:09:04;94668.75;;;12.60;46.83
30819;BME280;17546;42.674;23.284;2023-03-03T09:11:30;94663.94;;;12.61;46.96
30819;BME280;17546;42.674;23.284;2023-03-03T09:14:14;94669.66;;;12.86;46.88
30819;BME280;17546;42.674;23.284;2023-03-03T09:16:50;94660.09;;;12.17;48.04
30819;BME280;17546;42.674;23.284;2023-03-03T09:21:51;94657.69;;;12.49;47.59
30819;BME280;17546;42.674;23.284;2023-03-03T09:24:24;94656.56;;;12.75;46.93
30819;BME280;17546;42.674;23.284;2023-03-03T09:26:52;94661.91;;;12.67;47.14
30819;BME280;17546;42.674;23.284;2023-03-03T09:29:41;94661.25;;;12.44;47.72
30819;BME280;17546;42.674;23.284;2023-03-03T09:34:46;94661.56;;;12.88;47.05
30819;BME280;17546;42.674;23.284;2023-03-03T09:37:26;94661.81;;;12.90;47.19
30819;BME280;17546;42.674;23.284;2023-03-03T09:39:56;94657.81;;;13.21;47.00
30819;BME280;17546;42.674;23.284;2023-03-03T09:42:52;94672.41;;;13.38;47.11
30819;BME280;17546;42.674;23.284;2023-03-03T09:45:29;94658.88;;;13.54;46.99
30819;BME280;17546;42.674;23.284;2023-03-03T09:48:43;94667.69;;;13.58;47.09
30819;BME280;17546;42.674;23.284;2023-03-03T09:57:10;94663.63;;;13.59;46.31
30819;BME280;17546;42.674;23.284;2023-03-03T10:00:24;94664.03;;;13.69;46.15
30819;BME280;17546;42.674;23.284;2023-03-03T10:05:43;94657.78;;;13.62;45.57
30819;BME280;17546;42.674;23.284;2023-03-03T10:17:20;94655.22;;;13.95;45.27
30819;BME280;17546;42.674;23.284;2023-03-03T10:22:54;94650.63;;;13.97;46.12
30819;BME280;17546;42.674;23.284;2023-03-03T10:34:04;94642.22;;;14.03;45.61
30819;BME280;17546;42.674;23.284;2023-03-03T10:42:42;94636.06;;;13.85;44.99
30819;BME280;17546;42.674;23.284;2023-03-03T10:48:10;94642.69;;;14.07;44.75
30819;BME280;17546;42.674;23.284;2023-03-03T11:02:16;94630.84;;;14.01;44.91
30819;BME280;17546;42.674;23.284;2023-03-03T11:04:54;94615.06;;;14.09;44.57
30819;BME280;17546;42.674;23.284;2023-03-03T11:10:20;94616.09;;;14.06;45.22
30819;BME280;17546;42.674;23.284;2023-03-03T11:15:40;94611.81;;;14.05;45.17
30819;BME280;17546;42.674;23.284;2023-03-03T11:18:28;94609.91;;;13.94;45.36
30819;BME280;17546;42.674;23.284;2023-03-03T11:21:14;94602.81;;;13.93;45.53
30819;BME280;17546;42.674;23.284;2023-03-03T11:26:43;94605.19;;;13.59;46.60
30819;BME280;17546;42.674;23.284;2023-03-03T11:29:34;94606.13;;;13.37;46.53
30819;BME280;17546;42.674;23.284;2023-03-03T11:32:32;94602.06;;;13.68;46.03
30819;BME280;17546;42.674;23.284;2023-03-03T11:41:02;94596.09;;;13.58;45.83
30819;BME280;17546;42.674;23.284;2023-03-03T11:43:43;94584.06;;;13.09;47.00
30819;BME280;17546;42.674;23.284;2023-03-03T11:46:17;94596.72;;;13.70;46.29
30819;BME280;17546;42.674;23.284;2023-03-03T11:57:21;94595.00;;;13.92;45.96
30819;BME280;17546;42.674;23.284;2023-03-03T12:05:41;94589.25;;;13.84;46.49
30819;BME280;17546;42.674;23.284;2023-03-03T12:08:28;94583.75;;;13.54;47.18
30819;BME280;17546;42.674;23.284;2023-03-03T12:13:37;94590.34;;;13.75;46.60
30819;BME280;17546;42.674;23.284;2023-03-03T12:16:14;94585.34;;;13.93;46.28
30819;BME280;17546;42.674;23.284;2023-03-03T12:19:08;94581.66;;;13.84;46.84
30819;BME280;17546;42.674;23.284;2023-03-03T12:22:24;94588.38;;;13.95;46.76
30819;BME280;17546;42.674;23.284;2023-03-03T12:32:31;94578.19;;;13.78;47.52
30819;BME280;17546;42.674;23.284;2023-03-03T12:35:14;94590.94;;;13.68;47.68
30819;BME280;17546;42.674;23.284;2023-03-03T12:40:20;94587.66;;;13.03;49.76
30819;BME280;17546;42.674;23.284;2023-03-03T12:42:56;94589.16;;;13.05;49.78
30819;BME280;17546;42.674;23.284;2023-03-03T12:48:36;94597.41;;;12.80;49.96
30819;BME280;17546;42.674;23.284;2023-03-03T12:53:46;94594.22;;;13.00;49.71
30819;BME280;17546;42.674;23.284;2023-03-03T13:04:47;94594.75;;;13.40;49.24
30819;BME280;17546;42.674;23.284;2023-03-03T13:07:30;94582.97;;;13.53;49.21
30819;BME280;17546;42.674;23.284;2023-03-03T13:15:22;94570.31;;;13.82;48.56
30819;BME280;17546;42.674;23.284;2023-03-03T13:20:28;94575.31;;;14.09;48.18
30819;BME280;17546;42.674;23.284;2023-03-03T13:28:24;94574.97;;;13.93;48.43
30819;BME280;17546;42.674;23.284;2023-03-03T13:31:00;94568.53;;;12.94;49.46
30819;BME280;17546;42.674;23.284;2023-03-03T13:33:33;94578.34;;;13.31;49.17
30819;BME280;17546;42.674;23.284;2023-03-03T13:36:06;94572.69;;;13.42;49.02
30819;BME280;17546;42.674;23.284;2023-03-03T13:38:41;94568.31;;;13.77;48.38
30819;BME280;17546;42.674;23.284;2023-03-03T13:41:22;94576.31;;;13.87;48.70
30819;BME280;17546;42.674;23.284;2023-03-03T13:44:00;94572.06;;;13.80;49.13
30819;BME280;17546;42.674;23.284;2023-03-03T13:49:59;94568.16;;;13.39;48.93
30819;BME280;17546;42.674;23.284;2023-03-03T13:52:07;94565.75;;;13.79;48.28
30819;BME280;17546;42.674;23.284;2023-03-03T13:57:54;94564.25;;;14.03;47.76
30819;BME280;17546;42.674;23.284;2023-03-03T14:05:48;94580.00;;;14.19;47.41
30819;BME280;17546;42.674;23.284;2023-03-03T14:16:21;94568.50;;;14.47;46.93
30819;BME280;17546;42.674;23.284;2023-03-03T14:18:58;94565.34;;;14.38;47.13
30819;BME280;17546;42.674;23.284;2023-03-03T14:24:28;94560.84;;;14.54;47.11
30819;BME280;17546;42.674;23.284;2023-03-03T14:26:56;94559.06;;;14.56;46.66
30819;BME280;17546;42.674;23.284;2023-03-03T14:29:30;94552.19;;;13.95;47.39
30819;BME280;17546;42.674;23.284;2023-03-03T14:31:58;94557.41;;;13.79;48.21
30819;BME280;17546;42.674;23.284;2023-03-03T14:34:36;94555.31;;;13.85;47.93
30819;BME280;17546;42.674;23.284;2023-03-03T14:37:24;94559.31;;;13.90;47.75
30819;BME280;17546;42.674;23.284;2023-03-03T14:45:29;94557.50;;;13.93;48.15
30819;BME280;17546;42.674;23.284;2023-03-03T14:47:56;94552.13;;;14.00;47.78
30819;BME280;17546;42.674;23.284;2023-03-03T14:50:33;94560.25;;;14.17;47.69
30819;BME280;17546;42.674;23.284;2023-03-03T14:53:13;94554.03;;;14.30;47.59
30819;BME280;17546;42.674;23.284;2023-03-03T14:55:41;94565.13;;;14.36;47.86
30819;BME280;17546;42.674;23.284;2023-03-03T14:58:26;94555.88;;;14.46;47.36
30819;BME280;17546;42.674;23.284;2023-03-03T15:01:07;94553.44;;;14.37;47.36
30819;BME280;17546;42.674;23.284;2023-03-03T15:03:34;94548.72;;;14.51;46.99
30819;BME280;17546;42.674;23.284;2023-03-03T15:06:10;94555.66;;;14.63;47.22
30819;BME280;17546;42.674;23.284;2023-03-03T15:08:39;94550.94;;;14.53;47.21
30819;BME280;17546;42.674;23.284;2023-03-03T15:13:41;94553.75;;;14.34;47.08
30819;BME280;17546;42.674;23.284;2023-03-03T15:16:23;94548.22;;;14.09;47.25
30819;BME280;17546;42.674;23.284;2023-03-03T15:21:36;94557.06;;;14.32;47.22
30819;BME280;17546;42.674;23.284;2023-03-03T15:24:27;94552.16;;;14.38;47.13
30819;BME280;17546;42.674;23.284;2023-03-03T15:27:00;94553.38;;;14.43;47.17
30819;BME280;17546;42.674;23.284;2023-03-03T15:29:42;94550.41;;;14.16;47.12
30819;BME280;17546;42.674;23.284;2023-03-03T15:35:28;94560.28;;;14.36;47.19
30819;BME280;17546;42.674;23.284;2023-03-03T15:38:15;94567.91;;;14.36;47.48
30819;BME280;17546;42.674;23.284;2023-03-03T15:43:35;94563.59;;;14.35;47.10
30819;BME280;17546;42.674;23.284;2023-03-03T15:46:14;94566.31;;;14.40;47.37
30819;BME280;17546;42.674;23.284;2023-03-03T15:48:59;94570.59;;;14.41;47.07
30819;BME280;17546;42.674;23.284;2023-03-03T15:51:40;94569.25;;;14.48;47.01
30819;BME280;17546;42.674;23.284;2023-03-03T15:54:39;94574.91;;;14.42;47.40
30819;BME280;17546;42.674;23.284;2023-03-03T16:02:55;94567.50;;;14.07;47.40
30819;BME280;17546;42.674;23.284;2023-03-03T16:05:34;94570.75;;;14.11;47.02
30819;BME280;17546;42.674;23.284;2023-03-03T16:08:20;94578.63;;;14.07;47.27
30819;BME280;17546;42.674;23.284;2023-03-03T16:11:07;94582.56;;;14.17;47.20
30819;BME280;17546;42.674;23.284;2023-03-03T16:13:55;94589.03;;;14.25;47.52
30819;BME280;17546;42.674;23.284;2023-03-03T16:27:20;94588.34;;;14.19;47.58
30819;BME280;17546;42.674;23.284;2023-03-03T16:35:25;94594.78;;;14.33;47.69
30819;BME280;17546;42.674;23.284;2023-03-03T16:40:35;94603.47;;;14.49;47.47
30819;BME280;17546;42.674;23.284;2023-03-03T16:45:39;94611.84;;;14.24;47.21
30819;BME280;17546;42.674;23.284;2023-03-03T16:48:32;94616.44;;;14.21;47.42
30819;BME280;17546;42.674;23.284;2023-03-03T16:51:27;94610.19;;;14.15;47.47
30819;BME280;17546;42.674;23.284;2023-03-03T16:54:08;94619.97;;;14.22;47.42
30819;BME280;17546;42.674;23.284;2023-03-03T16:56:42;94622.25;;;14.23;47.45